DW5071 Weather Reports


Display with metric or nautical units.
time (UTC)temp
F
wind
direction
speed
MPH
gust
MPH
rain 1hr
in
rain 24hr
in
rain mn
in
humidity
%
barometer
mb
20190223024518 41 0.0 1.0 0.00 1.09 0.47 89 1017.2
20190223024016 41 270 1.0 2.0 0.00 1.11 0.47 89 1017.0
20190223023516 41 0.0 2.0 0.00 1.12 0.47 88 1016.9
20190223023015 41 270 1.0 3.0 0.00 1.13 0.47 88 1016.6
20190223022516 41 0.0 2.0 0.00 1.15 0.47 88 1016.5
20190223022017 41 292 1.0 3.0 0.00 1.17 0.47 88 1016.5
20190223021516 41 270 1.0 3.0 0.00 1.18 0.47 88 1016.4
20190223021015 41 270 1.0 3.0 0.00 1.20 0.47 88 1016.3
20190223020516 41 270 1.0 3.0 0.00 1.21 0.47 88 1016.2
20190223020017 41 270 1.0 4.0 0.01 1.22 0.47 89 1016.1
20190223015531 41 270 1.0 2.0 0.01 1.24 0.47 88 1016.0
20190223015016 41 0.0 2.0 0.01 1.27 0.47 88 1015.8
20190223014516 42 270 1.0 2.0 0.01 1.29 0.47 88 1015.7
20190223014016 42 270 1.0 3.0 0.01 1.30 0.47 88 1015.7
20190223013515 42 270 1.0 2.0 0.01 1.31 0.47 88 1015.5
20190223013016 42 270 1.0 4.0 0.01 1.32 0.47 88 1015.4
20190223012516 42 270 2.0 4.0 0.01 1.32 0.47 87 1015.4
20190223012016 42 270 1.0 2.0 0.01 1.33 0.47 87 1015.3
20190223011516 42 270 1.0 3.0 0.01 1.34 0.47 87 1015.2
20190223011015 42 270 1.0 2.0 0.01 1.36 0.47 87 1015.2
20190223010516 42 270 1.0 3.0 0.01 1.37 0.47 87 1015.2
20190223010016 42 270 1.0 3.0 0.00 1.37 0.46 87 1015.0
20190223005516 42 270 2.0 2.0 0.00 1.38 0.46 87 1014.9
20190223005019 42 270 1.0 3.0 0.00 1.40 0.46 88 1014.8
20190223004516 42 247 1.0 2.0 0.00 1.41 0.46 88 1014.7
20190223004017 42 0.0 2.0 0.00 1.42 0.46 88 1014.6
20190223003516 42 0.0 1.0 0.00 1.43 0.46 89 1014.4
20190223003016 42 0.0 2.0 0.00 1.43 0.46 89 1014.2
20190223002516 42 0.0 1.0 0.00 1.44 0.46 89 1014.1
20190223002015 42 0.0 2.0 0.00 1.45 0.46 89 1014.0
20190223001516 43 0.0 1.0 0.00 1.45 0.46 89 1013.8
20190223001015 43 0.0 1.0 0.00 1.46 0.46 89 1013.7
20190223000517 43 0.0 0.0 0.00 1.46 0.46 88 1013.6
20190223000015 43 0.0 1.0 0.00 1.48 0.46 88 1013.6
20190222235519 43 0.0 0.0 0.00 1.49 0.46 89 1013.6
20190222235015 43 0.0 1.0 0.00 1.50 0.46 89 1013.4
20190222234516 43 0.0 1.0 0.00 1.52 0.46 89 1013.3
20190222234017 43 0.0 0.0 0.00 1.53 0.46 88 1013.2
20190222233516 43 0.0 1.0 0.01 1.54 0.46 88 1013.3
20190222233015 43 0.0 0.0 0.01 1.56 0.46 88 1013.1
20190222232515 43 0.0 1.0 0.04 1.57 0.46 88 1013.0
20190222232015 43 0.0 1.0 0.05 1.58 0.46 88 1012.8
20190222231515 44 0.0 1.0 0.05 1.60 0.46 88 1012.6
20190222231015 44 0.0 0.0 0.05 1.61 0.46 88 1012.5
20190222230516 44 0.0 1.0 0.06 1.63 0.46 89 1012.4
20190222230015 44 0.0 1.0 0.06 1.64 0.46 90 1012.4
20190222225516 44 0.0 2.0 0.06 1.65 0.46 90 1012.2
20190222225016 44 0.0 3.0 0.06 1.66 0.46 90 1012.3
20190222224516 43 0.0 2.0 0.06 1.67 0.46 90 1012.2
20190222224016 43 0.0 2.0 0.06 1.68 0.46 89 1012.2
20190222223515 43 0.0 1.0 0.07 1.68 0.45 90 1012.0
20190222223016 42 0.0 1.0 0.07 1.69 0.45 88 1011.9
20190222222515 43 0.0 2.0 0.04 1.66 0.42 87 1011.9
20190222222016 43 0.0 1.0 0.03 1.66 0.41 86 1011.8
20190222221516 43 0.0 1.0 0.03 1.66 0.41 86 1011.6
20190222221016 43 0.0 1.0 0.03 1.67 0.41 85 1011.6
20190222220516 44 0.0 1.0 0.02 1.67 0.40 84 1011.4
20190222220016 44 0.0 1.0 0.02 1.68 0.40 84 1011.5
20190222215516 44 0.0 0.0 0.02 1.69 0.40 83 1011.5
20190222215016 45 0.0 2.0 0.01 1.69 0.39 82 1011.5
20190222214516 45 0.0 2.0 0.01 1.71 0.39 82 1011.4
20190222214016 45 0.0 2.0 0.01 1.72 0.39 82 1011.3
20190222213516 46 0.0 4.0 0.00 1.71 0.38 81 1011.3
20190222213016 46 0.0 2.0 0.00 1.71 0.38 80 1011.3
20190222212516 46 0.0 4.0 0.00 1.72 0.38 78 1011.3
20190222212015 47 0.0 3.0 0.00 1.72 0.38 78 1011.3
20190222211516 47 247 1.0 3.0 0.00 1.73 0.38 76 1011.2
20190222211016 47 0.0 2.0 0.00 1.73 0.38 77 1011.1
20190222210516 47 247 2.0 5.0 0.00 1.74 0.38 75 1011.2
20190222210016 47 247 1.0 4.0 0.00 1.74 0.38 74 1011.2
20190222205516 48 337 1.0 6.0 0.00 1.75 0.38 75 1011.1
20190222205016 47 22 1.0 4.0 0.00 1.76 0.38 75 1011.2
20190222204516 47 247 2.0 5.0 0.00 1.77 0.38 75 1011.2
20190222204016 46 247 3.0 8.0 0.00 1.78 0.38 76 1011.2
20190222203517 47 247 2.0 6.0 0.00 1.79 0.38 77 1011.3
20190222203016 47 247 1.0 5.0 0.00 1.81 0.38 78 1011.2
20190222202519 46 0.0 4.0 0.00 1.83 0.38 79 1011.2
20190222202015 47 0.0 2.0 0.00 1.84 0.38 76 1011.3
20190222201516 47 0.0 3.0 0.00 1.85 0.38 74 1011.2
20190222201016 47 0.0 0.0 0.00 1.85 0.38 75 1011.2
20190222200515 47 0.0 0.0 0.00 1.85 0.38 73 1011.2
20190222200015 48 247 1.0 3.0 0.00 1.85 0.38 72 1011.1
20190222195516 48 0.0 0.0 0.00 1.85 0.38 73 1011.1
20190222195015 48 0.0 0.0 0.00 1.85 0.38 75 1011.1
20190222194515 47 0.0 1.0 0.00 1.85 0.38 78 1011.1
20190222194015 47 0.0 2.0 0.00 1.85 0.38 75 1011.2
20190222193516 47 0.0 1.0 0.00 1.85 0.38 75 1011.3
20190222193016 47 0.0 2.0 0.00 1.85 0.38 76 1011.5
20190222192516 47 0.0 4.0 0.00 1.85 0.38 78 1011.6
20190222192016 47 0.0 1.0 0.00 1.85 0.38 78 1011.5
20190222191515 47 0.0 0.0 0.00 1.85 0.38 81 1011.5
20190222191015 46 270 1.0 2.0 0.00 1.85 0.38 80 1011.4
20190222190516 47 270 1.0 2.0 0.00 1.85 0.38 81 1011.5
20190222190015 46 0.0 3.0 0.00 1.87 0.38 83 1011.4
20190222185521 46 247 1.0 3.0 0.00 1.87 0.38 85 1011.4
20190222185015 45 247 1.0 4.0 0.00 1.88 0.38 84 1011.3
20190222184515 45 247 1.0 4.0 0.00 1.88 0.38 87 1011.5
20190222184015 44 270 1.0 3.0 0.00 1.88 0.38 89 1011.6
20190222183516 43 247 1.0 4.0 0.00 1.88 0.38 90 1011.5
20190222183016 43 270 2.0 5.0 0.00 1.88 0.38 90 1011.5
20190222182516 43 0 1.0 4.0 0.00 1.88 0.38 91 1011.6
20190222182015 43 247 1.0 4.0 0.00 1.88 0.38 92 1011.5
20190222181516 43 337 1.0 4.0 0.00 1.88 0.38 93 1011.6
20190222181015 42 0.0 3.0 0.00 1.88 0.38 93 1011.6
20190222180518 42 0 1.0 4.0 0.00 1.88 0.38 93 1011.5
20190222180015 41 0 1.0 5.0 0.00 1.88 0.38 93 1011.4
20190222175516 41 0.0 3.0 0.00 1.88 0.38 93 1011.2
20190222175015 41 67 1.0 5.0 0.00 1.88 0.38 93 1011.2
20190222174515 41 337 1.0 3.0 0.00 1.88 0.38 93 1011.3
20190222174015 41 0.0 3.0 0.00 1.88 0.38 93 1011.4
20190222173519 40 0.0 3.0 0.00 1.88 0.38 93 1011.1
20190222173017 40 337 1.0 3.0 0.00 1.88 0.38 93 1011.1
20190222172516 40 0.0 1.0 0.00 1.88 0.38 93 1011.1
20190222172015 40 270 1.0 1.0 0.01 1.88 0.38 93 1010.8
20190222171516 40 0.0 1.0 0.01 1.88 0.38 93 1010.4
20190222171016 40 0.0 1.0 0.01 1.88 0.38 93 1010.4
20190222170516 40 0.0 2.0 0.01 1.88 0.38 93 1010.4
20190222170016 40 247 1.0 3.0 0.01 1.88 0.38 93 1010.3
20190222165516 39 270 2.0 4.0 0.01 1.88 0.38 93 1010.2
20190222165016 39 270 1.0 4.0 0.01 1.88 0.38 93 1010.3
20190222164515 40 270 2.0 5.0 0.01 1.88 0.38 93 1010.7
20190222164016 40 247 2.0 4.0 0.01 1.88 0.38 93 1010.7
20190222163516 39 270 2.0 4.0 0.01 1.88 0.38 93 1010.6
20190222163015 39 270 2.0 4.0 0.01 1.88 0.38 93 1010.7
20190222162515 39 247 1.0 4.0 0.01 1.89 0.38 93 1010.4
20190222162015 40 270 1.0 3.0 0.00 1.88 0.37 94 1010.3
20190222161518 40 0.0 1.0 0.00 1.88 0.37 94 1010.3
20190222161015 40 0.0 2.0 0.00 1.88 0.37 94 1010.2
20190222160515 40 0.0 1.0 0.00 1.88 0.37 93 1010.1
20190222160015 40 0.0 1.0 0.00 1.88 0.37 94 1010.0
20190222155516 40 0.0 1.0 0.00 1.88 0.37 94 1009.8
20190222155016 40 0.0 2.0 0.00 1.88 0.37 94 1009.7
20190222154515 40 270 1.0 3.0 0.00 1.88 0.37 94 1009.4
20190222154015 40 0.0 2.0 0.00 1.89 0.37 94 1009.6
20190222153516 40 0.0 2.0 0.00 1.89 0.37 94 1009.6
20190222153036 40 0.0 1.0 0.00 1.89 0.37 94 1009.5
20190222152515 39 0.0 0.0 0.00 1.89 0.37 94 1009.6
20190222152016 39 0.0 0.0 0.00 1.89 0.37 94 1009.5
20190222151515 39 0.0 0.0 0.00 1.89 0.37 94 1009.0
20190222151015 39 0.0 0.0 0.00 1.89 0.37 94 1008.8
20190222150515 39 0.0 1.0 0.00 1.89 0.37 94 1008.8
20190222150016 39 0.0 1.0 0.01 1.89 0.37 93 1008.9
20190222145516 39 0.0 1.0 0.01 1.89 0.37 93 1008.6
20190222145016 39 270 1.0 3.0 0.01 1.89 0.37 93 1008.5
20190222144515 39 270 1.0 2.0 0.01 1.89 0.37 93 1008.7
20190222144016 39 270 1.0 3.0 0.01 1.89 0.37 93 1008.6
20190222143515 39 270 1.0 3.0 0.01 1.89 0.37 93 1008.8
20190222143015 39 270 1.0 2.0 0.01 1.89 0.37 93 1008.7
20190222142517 38 270 1.0 5.0 0.01 1.89 0.37 93 1008.7
20190222142016 38 270 2.0 5.0 0.01 1.90 0.37 93 1008.6
20190222141515 38 270 3.0 5.0 0.01 1.90 0.37 93 1008.4
20190222141015 38 270 2.0 4.0 0.02 1.90 0.37 93 1008.2
20190222140515 38 270 3.0 7.0 0.02 1.90 0.37 93 1007.9
20190222140015 38 270 2.0 3.0 0.01 1.89 0.36 93 1007.8
20190222135515 38 270 2.0 5.0 0.01 1.90 0.36 93 1007.9
20190222135015 38 270 2.0 4.0 0.02 1.90 0.36 93 1007.9
20190222134515 38 270 2.0 3.0 0.02 1.90 0.36 93 1008.3
20190222134016 38 270 1.0 3.0 0.02 1.90 0.36 93 1008.2
20190222133515 38 270 2.0 4.0 0.03 1.90 0.36 93 1008.0
20190222133015 38 270 2.0 5.0 0.03 1.90 0.36 93 1008.2
20190222132515 39 270 2.0 4.0 0.04 1.90 0.36 94 1007.9
20190222132017 39 270 3.0 5.0 0.04 1.90 0.36 93 1008.1
20190222131516 39 270 2.0 4.0 0.05 1.90 0.36 94 1008.0
20190222131015 39 270 2.0 4.0 0.05 1.89 0.35 94 1007.9
20190222130515 39 270 1.0 3.0 0.05 1.89 0.35 94 1007.8
20190222130015 39 270 2.0 3.0 0.06 1.89 0.35 94 1007.8
20190222125515 39 270 1.0 3.0 0.06 1.89 0.35 94 1007.8
20190222125015 39 270 1.0 3.0 0.06 1.88 0.34 94 1008.0
20190222124515 39 0.0 1.0 0.06 1.88 0.34 94 1008.1
20190222124015 39 0.0 1.0 0.07 1.88 0.34 94 1008.0
20190222123515 40 0.0 1.0 0.06 1.87 0.33 94 1008.0
20190222123015 40 0.0 0.0 0.07 1.88 0.33 94 1007.8
20190222122515 40 0.0 1.0 0.06 1.87 0.32 94 1007.8
20190222122015 40 0.0 1.0 0.07 1.87 0.32 94 1008.1
20190222121515 40 0.0 0.0 0.06 1.86 0.31 94 1008.1
20190222121015 40 0.0 1.0 0.05 1.85 0.30 94 1008.1
20190222120515 40 0.0 0.0 0.05 1.85 0.30 94 1008.1
20190222120015 40 0.0 0.0 0.04 1.84 0.28 94 1008.1
20190222115518 40 0.0 0.0 0.04 1.84 0.28 94 1007.9
20190222115018 40 0.0 0.0 0.03 1.83 0.28 94 1007.7
20190222114515 40 0.0 0.0 0.03 1.83 0.28 94 1007.6
20190222114018 40 0.0 1.0 0.02 1.82 0.27 94 1007.2
20190222113517 40 0.0 1.0 0.02 1.82 0.27 94 1007.3
20190222113017 40 0.0 0.0 0.01 1.81 0.26 94 1007.3
20190222112517 40 0.0 2.0 0.01 1.81 0.26 94 1007.2
20190222112016 40 0.0 1.0 0.00 1.80 0.25 94 1007.2
20190222111518 40 270 1.0 3.0 0.00 1.80 0.25 94 1007.1
20190222111017 40 0.0 2.0 0.00 1.80 0.25 94 1007.1
20190222110517 40 0.0 1.0 0.00 1.80 0.25 94 1006.9
20190222110015 40 0.0 0.0 0.01 1.80 0.25 94 1006.7
20190222105517 40 0.0 0.0 0.01 1.80 0.25 94 1006.8
20190222105017 40 0.0 0.0 0.01 1.80 0.25 94 1006.5
20190222104517 40 0.0 1.0 0.01 1.80 0.25 94 1006.6
20190222104015 40 0.0 1.0 0.01 1.80 0.25 94 1006.6
20190222103517 39 0.0 2.0 0.01 1.80 0.25 94 1006.5
20190222103017 39 0.0 1.0 0.01 1.80 0.25 94 1006.6
20190222102517 39 0.0 2.0 0.01 1.80 0.25 94 1006.6
20190222102017 39 0.0 1.0 0.02 1.80 0.25 94 1006.5
20190222101517 39 270 1.0 2.0 0.02 1.80 0.25 94 1006.8
20190222101017 39 270 1.0 2.0 0.02 1.80 0.25 94 1006.9
20190222100518 39 270 1.0 2.0 0.02 1.80 0.25 94 1006.9
20190222100017 39 270 1.0 3.0 0.01 1.79 0.24 94 1007.0
20190222095516 39 270 2.0 3.0 0.01 1.79 0.24 94 1006.7
20190222095018 39 270 1.0 3.0 0.01 1.79 0.24 94 1006.7
20190222094517 39 270 1.0 3.0 0.01 1.79 0.24 94 1006.5
20190222094017 39 270 2.0 5.0 0.01 1.79 0.24 94 1006.5
20190222093516 39 270 2.0 5.0 0.01 1.79 0.24 94 1006.5
20190222093017 39 270 2.0 6.0 0.01 1.79 0.24 94 1006.3
20190222092517 39 270 1.0 4.0 0.01 1.79 0.24 94 1006.5
20190222092017 39 270 1.0 2.0 0.00 1.78 0.23 94 1006.7
20190222091518 39 0.0 2.0 0.00 1.78 0.23 94 1006.5
20190222091017 39 0.0 1.0 0.02 1.78 0.23 94 1006.3
20190222090517 38 270 1.0 2.0 0.02 1.78 0.23 94 1006.1
20190222090017 38 270 1.0 3.0 0.02 1.78 0.23 94 1005.9
20190222085518 38 0.0 2.0 0.03 1.78 0.23 94 1005.9
20190222085017 38 0.0 1.0 0.06 1.78 0.23 94 1005.9
20190222084517 38 270 1.0 1.0 0.08 1.78 0.23 94 1005.9
20190222084015 38 270 1.0 2.0 0.10 1.78 0.23 94 1006.0
20190222083517 38 270 1.0 3.0 0.12 1.78 0.23 94 1006.0
20190222083017 38 270 1.0 2.0 0.13 1.78 0.23 94 1006.2
20190222082517 38 0.0 1.0 0.16 1.78 0.23 94 1006.2
20190222082017 38 247 1.0 2.0 0.18 1.78 0.23 94 1006.4
20190222081519 38 0.0 2.0 0.20 1.78 0.23 94 1006.6
20190222081017 38 225 1.0 2.0 0.19 1.76 0.21 93 1006.4
20190222080517 38 0.0 0.0 0.20 1.76 0.21 94 1006.8
20190222080017 39 0.0 1.0 0.21 1.76 0.21 94 1006.9
20190222075518 39 0.0 1.0 0.21 1.75 0.20 94 1006.7
20190222075017 39 0.0 1.0 0.20 1.72 0.17 94 1006.7
20190222074517 39 0.0 0.0 0.20 1.70 0.15 94 1007.2
20190222074017 39 0.0 0.0 0.20 1.68 0.13 94 1007.1
20190222073517 39 0.0 0.0 0.19 1.66 0.11 94 1006.8
20190222073017 39 0.0 0.0 0.18 1.64 0.09 94 1006.7
20190222072517 39 0.0 0.0 0.19 1.62 0.07 94 1006.8
20190222072017 39 0.0 0.0 0.18 1.60 0.05 94 1006.9
20190222071517 39 0.0 1.0 0.18 1.58 0.03 94 1006.8
20190222071017 39 0.0 0.0 0.18 1.57 0.02 94 1006.8
20190222070517 40 0.0 2.0 0.18 1.56 0.01 94 1006.8
20190222070017 40 0.0 1.0 0.18 1.55 1.55 93 1006.7
20190222065516 40 0.0 1.0 0.17 1.54 1.54 94 1006.9
20190222065015 40 0.0 2.0 0.15 1.51 1.51 94 1007.0
20190222064516 40 0.0 1.0 0.15 1.49 1.49 94 1006.8
20190222064016 40 0.0 1.0 0.13 1.47 1.47 94 1006.8
20190222063516 40 0.0 1.0 0.13 1.46 1.46 94 1006.6
20190222063016 40 0.0 0.0 0.12 1.45 1.45 94 1006.6
20190222062516 40 0.0 0.0 0.11 1.43 1.43 94 1006.6
20190222062015 40 0.0 0.0 0.10 1.42 1.42 94 1006.8
20190222061516 40 0.0 0.0 0.08 1.40 1.40 94 1006.6
20190222061016 40 0.0 1.0 0.07 1.39 1.39 94 1006.7
20190222060517 40 0.0 0.0 0.08 1.38 1.38 94 1006.5
20190222060017 40 0.0 0.0 0.07 1.37 1.37 94 1006.7
20190222055516 39 0.0 0.0 0.08 1.37 1.37 93 1006.5
20190222055016 39 0.0 0.0 0.07 1.35 1.35 93 1006.4
20190222054516 39 0.0 1.0 0.07 1.34 1.34 93 1006.4
20190222054016 39 0.0 1.0 0.09 1.34 1.34 93 1006.5
20190222053516 39 0.0 2.0 0.09 1.33 1.33 93 1006.6
20190222053015 39 270 1.0 3.0 0.10 1.33 1.33 93 1006.6
20190222052516 39 0.0 2.0 0.10 1.32 1.32 93 1006.7
20190222052016 39 0.0 2.0 0.11 1.32 1.32 93 1006.5
20190222051517 39 0.0 2.0 0.14 1.32 1.32 93 1006.6
20190222051015 39 0.0 1.0 0.15 1.31 1.31 93 1006.4
20190222050515 39 0.0 1.0 0.15 1.30 1.30 93 1006.5
20190222050016 39 0.0 1.0 0.17 1.30 1.30 93 1006.3
20190222045519 39 0.0 3.0 0.17 1.29 1.29 93 1006.4
20190222045016 39 270 1.0 5.0 0.18 1.28 1.28 93 1006.2
20190222044516 39 270 1.0 3.0 0.18 1.27 1.27 93 1006.3
20190222044016 39 270 1.0 4.0 0.17 1.25 1.25 93 1006.1
20190222043516 39 270 3.0 5.0 0.18 1.24 1.24 93 1006.3
20190222043016 39 270 2.0 5.0 0.18 1.23 1.23 93 1006.4
20190222042516 38 270 2.0 3.0 0.17 1.22 1.22 93 1006.2
20190222042015 38 270 2.0 5.0 0.15 1.20 1.20 93 1006.2
20190222041516 38 270 3.0 5.0 0.15 1.18 1.18 93 1006.2
20190222041015 38 270 3.0 7.0 0.15 1.16 1.15 93 1006.2
20190222040515 38 270 3.0 6.0 0.15 1.15 1.14 93 1006.1
20190222040015 38 270 4.0 9.0 0.14 1.13 1.12 93 1005.7
20190222035516 38 270 3.0 7.0 0.15 1.12 1.12 93 1005.9
20190222035015 38 270 3.0 6.0 0.15 1.10 1.10 92 1006.2
20190222034515 39 270 2.0 4.0 0.15 1.09 1.09 93 1006.3
20190222034016 39 270 2.0 5.0 0.17 1.08 1.08 93 1006.0
20190222033516 39 270 3.0 6.0 0.16 1.06 1.06 92 1005.9
20190222033016 39 270 4.0 7.0 0.16 1.05 1.05 92 1005.8
20190222032515 38 270 2.0 4.0 0.17 1.04 1.04 92 1006.0
20190222032016 39 270 2.0 5.0 0.19 1.04 1.04 92 1005.9
20190222031516 39 270 1.0 4.0 0.18 1.02 1.02 92 1005.9
20190222031015 39 270 1.0 3.0 0.19 1.01 1.01 92 1006.0
20190222030516 39 270 2.0 4.0 0.18 1.00 1.00 92 1005.8
20190222030016 39 270 2.0 5.0 0.18 0.99 0.99 92 1005.7
20190222025516 39 270 3.0 7.0 0.18 0.97 0.97 92 1005.8
20190222025016 39 270 3.0 6.0 0.20 0.95 0.95 92 1005.6